Time;durP1;ratioP1;P1;durP2;ratioP2;P2;SDS_P1;SDS_P2;PMS_P1;PMS_P2;Temp;Humidity;BMP_temperature;BMP_pressure;BME280_temperature;BME280_humidity;BME280_pressure;Samples;Min_cycle;Max_cycle;Signal;HPM_P1;HPM_P2
2023/01/01 00:02:19;;;;;;;1.27;1.17;;;21.20;56.20;;;;;;6051356;23;20419;-84
2023/01/01 00:05:07;;;;;;;;;;;;;;;;;;;;;
2023/01/01 00:07:39;;;;;;;1.10;1.00;;;21.20;56.10;;;;;;6116257;23;20391;-84
2023/01/01 00:10:27;;;;;;;1.10;1.00;;;21.20;56.10;;;;;;6178410;23;20372;-84
2023/01/01 00:12:59;;;;;;;1.10;0.93;;;21.20;56.10;;;;;;6159738;23;20398;-85
2023/01/01 00:15:32;;;;;;;1.50;1.10;;;21.20;56.10;;;;;;6213473;23;20347;-85
2023/01/01 00:18:13;;;;;;;1.30;1.20;;;21.20;56.10;;;;;;6183085;23;20381;-85
2023/01/01 00:21:09;;;;;;;1.30;1.00;;;21.20;56.10;;;;;;6187595;23;20375;-84
2023/01/01 00:26:48;;;;;;;1.00;0.90;;;21.20;56.10;;;;;;6036659;23;20363;-85
2023/01/01 00:29:29;;;;;;;1.00;0.90;;;21.20;56.10;;;;;;6037159;23;20349;-84
2023/01/01 00:32:51;;;;;;;1.00;0.90;;;21.20;56.10;;;;;;6036141;23;20380;-85
2023/01/01 00:35:55;;;;;;;1.20;1.10;;;21.20;56.10;;;;;;5958966;23;20400;-84
2023/01/01 00:38:37;;;;;;;1.07;0.97;;;21.20;56.10;;;;;;6036626;23;20376;-84
2023/01/01 00:41:04;;;;;;;1.00;0.80;;;21.20;56.10;;;;;;6036746;23;20432;-85
2023/01/01 00:43:30;;;;;;;1.10;1.00;;;21.20;56.10;;;;;;6028713;23;20412;-85
2023/01/01 00:46:08;;;;;;;1.50;1.00;;;21.10;56.00;;;;;;6035609;23;20385;-84
2023/01/01 00:51:33;;;;;;;1.10;0.90;;;21.20;56.10;;;;;;6035748;23;20412;-85
2023/01/01 00:54:14;;;;;;;1.20;1.03;;;21.20;56.10;;;;;;6037090;23;20361;-85
2023/01/01 00:56:48;;;;;;;1.13;1.03;;;21.10;56.00;;;;;;6035855;23;20408;-84
2023/01/01 00:59:35;;;;;;;1.20;0.90;;;21.10;56.00;;;;;;6036868;23;20360;-84
2023/01/01 01:02:07;;;;;;;1.37;1.10;;;21.10;56.00;;;;;;6036564;23;20416;-85
2023/01/01 01:04:57;;;;;;;1.10;1.00;;;21.10;56.00;;;;;;6211836;23;20374;-83
2023/01/01 01:07:35;;;;;;;1.33;1.17;;;21.20;56.10;;;;;;6209584;23;20415;-84
2023/01/01 01:10:11;;;;;;;;;;;;;;;;;;;;;
2023/01/01 01:12:46;;;;;;;1.50;1.17;;;21.20;56.10;;;;;;6210069;23;20370;-84
2023/01/01 01:15:26;;;;;;;1.00;0.90;;;21.10;56.00;;;;;;6213050;23;20361;-84
2023/01/01 01:18:16;;;;;;;;;;;;;;;;;;;;;
2023/01/01 01:20:55;;;;;;;1.40;0.90;;;21.20;56.10;;;;;;6192170;23;20385;-84
2023/01/01 01:23:49;;;;;;;1.07;0.90;;;21.10;56.00;;;;;;6211346;22;20446;-83
2023/01/01 01:26:40;;;;;;;1.30;1.10;;;21.20;56.10;;;;;;6212654;23;20371;-83
2023/01/01 01:29:13;;;;;;;1.20;1.00;;;21.10;56.00;;;;;;6187390;23;20367;-84
2023/01/01 01:31:46;;;;;;;1.23;1.00;;;21.10;56.00;;;;;;6187342;23;20439;-84
2023/01/01 01:34:23;;;;;;;1.20;1.10;;;21.10;56.00;;;;;;6187329;23;20375;-85
2023/01/01 01:36:59;;;;;;;1.70;1.30;;;21.10;56.00;;;;;;6187281;23;20379;-84
2023/01/01 01:39:41;;;;;;;;;;;;;;;;;;;;;
2023/01/01 01:42:23;;;;;;;1.40;1.20;;;21.20;56.10;;;;;;6212885;23;20394;-85
2023/01/01 01:48:02;;;;;;;1.87;1.00;;;21.10;56.00;;;;;;6212815;23;20344;-84
2023/01/01 01:50:36;;;;;;;1.27;1.10;;;21.10;56.00;;;;;;6187529;23;20355;-85
2023/01/01 01:53:18;;;;;;;1.00;0.90;;;21.10;56.00;;;;;;6185872;23;20362;-85
2023/01/01 01:55:52;;;;;;;1.53;1.07;;;21.10;56.00;;;;;;6187842;23;20422;-84
2023/01/01 01:58:29;;;;;;;1.47;1.00;;;21.10;56.00;;;;;;6214859;23;20340;-85
2023/01/01 02:01:08;;;;;;;;;;;;;;;;;;;;;
2023/01/01 02:04:06;;;;;;;1.30;1.10;;;21.10;56.00;;;;;;6214749;23;20366;-85
2023/01/01 02:06:37;;;;;;;1.00;0.90;;;21.10;56.00;;;;;;6186896;23;20347;-85
2023/01/01 02:09:22;;;;;;;1.40;1.00;;;21.10;56.00;;;;;;6164157;23;20398;-84
2023/01/01 02:12:03;;;;;;;;;;;;;;;;;;;;;
2023/01/01 02:14:46;;;;;;;1.50;1.23;;;21.10;56.10;;;;;;6214802;23;20363;-84
2023/01/01 02:17:35;;;;;;;1.40;1.10;;;21.10;56.10;;;;;;6213545;23;20363;-84
2023/01/01 02:20:01;;;;;;;1.13;1.03;;;21.10;56.60;;;;;;6189305;23;20421;-84
2023/01/01 02:22:46;;;;;;;;;;;;;;;;;;;;;
2023/01/01 02:25:48;;;;;;;1.00;0.87;;;21.10;56.10;;;;;;6214478;23;20147;-84
2023/01/01 02:28:19;;;;;;;1.23;1.13;;;21.10;56.10;;;;;;6189156;23;20354;-84
2023/01/01 02:30:49;;;;;;;1.43;1.10;;;21.10;56.60;;;;;;6188940;23;20360;-84
2023/01/01 02:36:35;;;;;;;1.10;0.90;;;21.10;56.10;;;;;;6214466;23;20366;-84
2023/01/01 02:39:09;;;;;;;1.67;1.13;;;21.00;56.50;;;;;;6214258;23;20375;-84
2023/01/01 02:42:06;;;;;;;1.60;1.20;;;21.10;56.10;;;;;;6188229;23;20411;-85
2023/01/01 02:44:48;;;;;;;1.20;0.90;;;21.10;56.10;;;;;;6187348;23;20431;-85
2023/01/01 02:47:28;;;;;;;1.30;1.13;;;21.10;56.10;;;;;;6164327;23;20371;-85
2023/01/01 02:50:04;;;;;;;1.17;1.07;;;21.00;56.00;;;;;;6188459;23;20375;-84
2023/01/01 02:53:30;;;;;;;;;;;;;;;;;;;;;
2023/01/01 02:56:25;;;;;;;1.47;1.23;;;21.10;56.10;;;;;;6214496;23;20360;-84
2023/01/01 03:02:10;;;;;;;1.10;0.90;;;21.10;56.10;;;;;;6094940;23;20470;-84
2023/01/01 03:08:35;;;;;;;1.20;1.00;;;21.00;56.10;;;;;;6091333;23;20430;-84
2023/01/01 03:11:10;;;;;;;1.50;1.10;;;21.00;56.10;;;;;;6070985;23;20378;-85
2023/01/01 03:13:55;;;;;;;1.30;0.90;;;21.00;56.10;;;;;;6071002;23;20389;-85
2023/01/01 03:16:41;;;;;;;1.17;1.07;;;21.00;56.10;;;;;;6094851;23;20402;-84
2023/01/01 03:19:40;;;;;;;1.03;0.80;;;21.00;56.10;;;;;;6093753;23;20394;-84
2023/01/01 03:25:14;;;;;;;1.13;0.90;;;21.00;56.10;;;;;;6094576;23;20395;-85
2023/01/01 03:27:56;;;;;;;1.30;1.10;;;21.00;56.10;;;;;;6070621;23;20402;-85
2023/01/01 03:30:39;;;;;;;1.70;1.40;;;21.00;56.10;;;;;;6071077;23;20391;-83
2023/01/01 03:33:22;;;;;;;1.47;1.10;;;21.00;56.10;;;;;;6070801;23;20416;-84
2023/01/01 03:36:03;;;;;;;1.40;1.10;;;21.00;56.10;;;;;;6070722;23;20428;-83
2023/01/01 03:38:42;;;;;;;1.40;1.30;;;21.00;56.10;;;;;;6122376;23;20375;-84
2023/01/01 03:41:39;;;;;;;1.30;1.10;;;21.00;56.10;;;;;;6212450;23;20410;-84
2023/01/01 03:44:34;;;;;;;1.17;0.97;;;21.00;56.00;;;;;;6188396;23;20366;-83
2023/01/01 03:47:07;;;;;;;1.27;1.10;;;21.00;56.10;;;;;;6188515;23;20371;-83
2023/01/01 03:49:50;;;;;;;1.40;1.13;;;21.00;56.10;;;;;;6213822;23;20331;-84
2023/01/01 03:56:25;;;;;;;1.10;0.90;;;21.00;56.10;;;;;;6213847;23;20366;-84
2023/01/01 03:59:22;;;;;;;1.37;1.20;;;21.00;56.10;;;;;;6213016;23;20407;-83
2023/01/01 04:01:59;;;;;;;1.50;1.00;;;21.00;56.10;;;;;;6187899;23;20674;-84
2023/01/01 04:04:28;;;;;;;1.33;1.00;;;21.00;56.10;;;;;;6190067;23;20371;-85
2023/01/01 04:07:13;;;;;;;1.30;0.90;;;21.00;56.10;;;;;;6187902;23;20439;-84
2023/01/01 04:09:52;;;;;;;1.37;1.27;;;21.00;56.10;;;;;;6212494;23;20443;-85
2023/01/01 04:12:19;;;;;;;1.77;1.20;;;21.00;56.10;;;;;;6213473;23;20448;-85
2023/01/01 04:15:02;;;;;;;1.37;1.13;;;21.00;56.10;;;;;;6187854;23;20386;-84
2023/01/01 04:18:02;;;;;;;1.63;1.43;;;21.00;56.10;;;;;;6187820;23;20387;-85
2023/01/01 04:20:30;;;;;;;1.23;1.13;;;21.00;56.10;;;;;;6213631;23;20359;-84
2023/01/01 04:23:23;;;;;;;2.10;1.37;;;21.00;56.60;;;;;;6187719;23;20399;-84
2023/01/01 04:25:59;;;;;;;1.47;1.20;;;21.00;56.10;;;;;;6213377;23;20352;-84
2023/01/01 04:28:33;;;;;;;1.20;1.10;;;21.00;56.00;;;;;;6180466;23;20391;-84
2023/01/01 04:31:13;;;;;;;1.23;1.10;;;21.00;56.00;;;;;;6189023;23;20443;-84
2023/01/01 04:33:44;;;;;;;1.20;1.00;;;21.00;56.10;;;;;;6187884;23;20373;-84
2023/01/01 04:36:22;;;;;;;1.20;1.00;;;21.00;56.00;;;;;;6213361;23;20378;-84
2023/01/01 04:39:00;;;;;;;1.57;1.20;;;21.00;56.00;;;;;;6188003;23;20394;-84
2023/01/01 04:41:50;;;;;;;1.53;1.20;;;21.00;56.00;;;;;;6212795;23;20399;-84
2023/01/01 04:44:19;;;;;;;1.70;1.20;;;21.00;56.00;;;;;;6213295;23;20490;-84
2023/01/01 04:46:48;;;;;;;1.90;1.40;;;21.00;56.00;;;;;;6211786;23;20395;-84
2023/01/01 04:49:14;;;;;;;2.53;1.20;;;21.00;56.00;;;;;;6213279;23;20386;-84
2023/01/01 04:51:45;;;;;;;1.33;1.13;;;21.00;56.00;;;;;;6213310;23;20367;-84
2023/01/01 04:54:18;;;;;;;1.53;1.30;;;21.00;56.00;;;;;;6187931;23;20382;-85
2023/01/01 04:56:53;;;;;;;1.10;1.00;;;21.00;56.00;;;;;;6188062;23;20359;-84
2023/01/01 04:59:21;;;;;;;1.90;1.20;;;21.00;56.00;;;;;;6186346;23;20403;-83
2023/01/01 05:02:18;;;;;;;1.37;1.20;;;21.00;56.10;;;;;;6186553;23;20410;-83
2023/01/01 05:04:53;;;;;;;1.40;1.27;;;21.00;56.00;;;;;;6193413;23;20370;-83
2023/01/01 05:07:26;;;;;;;1.37;1.20;;;21.00;56.00;;;;;;6212994;23;20385;-84
2023/01/01 05:10:01;;;;;;;1.40;1.30;;;21.00;56.00;;;;;;6186966;23;20431;-84
2023/01/01 05:12:32;;;;;;;1.70;1.20;;;21.00;56.00;;;;;;6185033;23;20406;-84
2023/01/01 05:14:58;;;;;;;1.87;1.40;;;21.00;56.00;;;;;;6187634;23;20383;-84
2023/01/01 05:17:27;;;;;;;1.60;1.50;;;21.00;56.00;;;;;;6212984;23;20394;-84
2023/01/01 05:19:59;;;;;;;1.40;1.20;;;21.00;56.00;;;;;;6186917;23;20397;-84
2023/01/01 05:22:35;;;;;;;1.30;1.20;;;21.00;56.00;;;;;;6213260;23;20407;-84
2023/01/01 05:25:04;;;;;;;1.47;1.37;;;21.00;56.00;;;;;;6186684;23;20413;-84
2023/01/01 05:27:37;;;;;;;1.33;1.10;;;21.00;56.00;;;;;;6161499;23;20379;-83
2023/01/01 05:30:07;;;;;;;2.40;1.50;;;21.00;56.00;;;;;;6187305;23;20363;-84
2023/01/01 05:32:44;;;;;;;1.67;1.40;;;21.00;56.00;;;;;;6164687;23;20386;-83
2023/01/01 05:35:12;;;;;;;1.60;1.30;;;21.00;56.00;;;;;;6214762;23;20382;-83
2023/01/01 05:37:43;;;;;;;1.63;1.07;;;21.00;56.00;;;;;;6214755;23;20368;-83
2023/01/01 05:40:16;;;;;;;1.30;1.10;;;21.00;56.00;;;;;;6189614;23;20374;-84
2023/01/01 05:42:47;;;;;;;1.67;1.20;;;21.00;56.00;;;;;;6215214;23;20415;-83
2023/01/01 05:45:28;;;;;;;1.60;1.40;;;21.00;56.00;;;;;;6213653;23;20363;-85
2023/01/01 05:47:57;;;;;;;2.00;1.40;;;21.00;56.00;;;;;;6214791;23;20351;-84
2023/01/01 05:50:28;;;;;;;1.50;1.17;;;21.00;56.00;;;;;;6189022;23;20379;-84
2023/01/01 05:52:54;;;;;;;2.13;1.67;;;21.00;56.00;;;;;;6189397;23;20406;-84
2023/01/01 05:55:33;;;;;;;;;;;;;;;;;;;;;
2023/01/01 05:58:01;;;;;;;1.43;1.30;;;21.00;56.00;;;;;;6214929;23;20331;-84
2023/01/01 06:00:43;;;;;;;2.20;1.60;;;21.00;56.00;;;;;;6189183;23;20359;-85
2023/01/01 06:03:14;;;;;;;1.93;1.30;;;21.00;56.00;;;;;;6189146;23;20453;-85
2023/01/01 06:05:59;;;;;;;1.20;1.03;;;21.00;56.00;;;;;;6214966;23;20351;-85
2023/01/01 06:08:42;;;;;;;1.80;1.50;;;21.10;56.10;;;;;;6215140;23;20378;-85
2023/01/01 06:11:13;;;;;;;1.60;1.33;;;21.10;56.00;;;;;;6187954;23;20367;-85
2023/01/01 06:13:52;;;;;;;1.60;1.37;;;21.00;56.00;;;;;;6188171;23;20367;-85
2023/01/01 06:16:25;;;;;;;1.70;1.30;;;21.10;56.00;;;;;;6188880;23;20382;-85
2023/01/01 06:18:58;;;;;;;1.40;1.20;;;21.10;56.00;;;;;;6214681;23;20355;-85
2023/01/01 06:21:31;;;;;;;1.60;1.40;;;21.10;56.00;;;;;;6214344;23;20395;-84
2023/01/01 06:24:02;;;;;;;2.10;1.90;;;21.10;56.00;;;;;;6188255;23;20381;-85
2023/01/01 06:26:34;;;;;;;1.57;1.47;;;21.10;56.00;;;;;;6214579;23;20414;-85
2023/01/01 06:29:02;;;;;;;1.53;1.30;;;21.10;56.00;;;;;;6188795;23;20382;-85
2023/01/01 06:31:37;;;;;;;1.40;1.30;;;21.10;56.00;;;;;;6188659;23;20391;-85
2023/01/01 06:34:08;;;;;;;1.70;1.53;;;21.10;56.00;;;;;;6189169;23;20351;-84
2023/01/01 06:36:59;;;;;;;;;;;;;;;;;;;;;
2023/01/01 06:39:33;;;;;;;1.40;1.20;;;21.10;56.00;;;;;;6215222;23;20365;-84
2023/01/01 06:42:22;;;;;;;1.90;1.63;;;21.10;56.00;;;;;;6211178;23;20395;-84
2023/01/01 06:44:55;;;;;;;1.60;1.50;;;21.10;56.00;;;;;;6214786;23;20352;-84
2023/01/01 06:47:24;;;;;;;1.37;1.00;;;21.10;56.00;;;;;;6189008;23;20387;-84
2023/01/01 06:50:07;;;;;;;1.63;1.53;;;21.10;56.00;;;;;;6189320;23;20395;-85
2023/01/01 06:52:38;;;;;;;1.67;1.30;;;21.10;56.00;;;;;;6215150;23;20360;-84
2023/01/01 06:55:29;;;;;;;1.50;1.27;;;21.10;56.00;;;;;;6213566;23;20359;-84
2023/01/01 06:58:08;;;;;;;1.70;1.20;;;21.10;56.00;;;;;;6214367;23;20607;-84
2023/01/01 07:00:50;;;;;;;;;;;;;;;;;;;;;
2023/01/01 07:03:28;;;;;;;1.40;1.30;;;21.10;56.00;;;;;;6210251;23;20367;-84
2023/01/01 07:06:04;;;;;;;1.70;1.40;;;21.10;56.00;;;;;;6188558;23;20367;-84
2023/01/01 07:08:53;;;;;;;1.27;1.10;;;21.10;56.00;;;;;;6189289;23;20371;-84
2023/01/01 07:11:23;;;;;;;1.47;1.23;;;21.10;56.00;;;;;;6212068;23;20375;-84
2023/01/01 07:13:59;;;;;;;1.43;1.30;;;21.10;56.00;;;;;;6164084;23;20426;-84
2023/01/01 07:16:38;;;;;;;;;;;;;;;;;;;;;
2023/01/01 07:19:13;;;;;;;1.20;1.10;;;21.10;55.90;;;;;;6191962;23;20420;-85
2023/01/01 07:21:56;;;;;;;1.57;1.47;;;21.20;56.10;;;;;;6214322;23;20386;-85
2023/01/01 07:24:27;;;;;;;1.40;1.30;;;21.20;56.10;;;;;;6214911;23;20383;-85
2023/01/01 07:26:53;;;;;;;1.93;1.30;;;21.10;56.00;;;;;;6188107;23;20383;-86
2023/01/01 07:29:20;;;;;;;2.00;1.57;;;21.20;56.00;;;;;;6214132;23;20363;-86
2023/01/01 07:35:13;;;;;;;;;;;;;;;;;;;;;
2023/01/01 07:37:54;;;;;;;1.43;1.33;;;21.20;56.00;;;;;;6188390;23;20363;-86
2023/01/01 07:40:35;;;;;;;1.80;1.47;;;21.20;56.00;;;;;;6164664;23;20388;-86
2023/01/01 07:43:11;;;;;;;2.00;1.80;;;21.20;56.00;;;;;;6214047;23;20498;-86
2023/01/01 07:45:49;;;;;;;1.60;1.43;;;21.10;55.90;;;;;;6164477;23;20375;-86
2023/01/01 07:54:50;;;;;;;1.47;1.10;;;21.20;56.00;;;;;;6213883;23;20342;-86
2023/01/01 07:57:19;;;;;;;1.73;1.47;;;21.20;56.10;;;;;;6187596;23;20375;-86
2023/01/01 07:59:52;;;;;;;1.57;1.47;;;21.20;56.10;;;;;;6182448;23;20471;-86
2023/01/01 08:02:39;;;;;;;1.40;1.20;;;21.20;56.10;;;;;;6188682;23;20415;-86
2023/01/01 08:05:05;;;;;;;1.53;1.40;;;21.20;56.10;;;;;;6168090;23;20370;-86
2023/01/01 08:07:55;;;;;;;2.23;1.50;;;21.20;56.00;;;;;;6188571;23;20391;-86
2023/01/01 08:10:31;;;;;;;1.67;1.40;;;21.20;56.10;;;;;;6187749;23;20405;-86
2023/01/01 08:16:26;;;;;;;1.40;1.30;;;21.20;56.10;;;;;;6149193;23;20397;-86
2023/01/01 08:19:15;;;;;;;1.37;1.23;;;21.20;56.10;;;;;;6213980;23;20383;-86
2023/01/01 08:22:07;;;;;;;1.37;1.27;;;21.20;56.10;;;;;;6214014;23;20418;-86
2023/01/01 08:24:47;;;;;;;2.03;1.63;;;21.20;56.10;;;;;;6213066;23;21261;-86
2023/01/01 08:30:45;;;;;;;1.10;1.00;;;21.20;56.10;;;;;;6213704;23;20350;-86
2023/01/01 08:36:15;;;;;;;1.33;1.23;;;21.10;56.00;;;;;;6207970;23;20360;-86
2023/01/01 08:39:10;;;;;;;1.33;1.00;;;21.20;56.10;;;;;;6187665;23;20382;-87
2023/01/01 08:41:40;;;;;;;2.00;1.43;;;21.10;56.00;;;;;;6193200;23;20414;-86
2023/01/01 08:44:08;;;;;;;1.90;1.60;;;21.20;56.10;;;;;;6187815;23;20367;-86
2023/01/01 08:46:58;;;;;;;1.80;1.50;;;21.20;56.10;;;;;;6213750;23;20378;-86
2023/01/01 08:49:31;;;;;;;1.40;1.13;;;21.20;56.00;;;;;;6165067;23;20377;-86
2023/01/01 08:52:19;;;;;;;1.60;1.43;;;21.20;56.00;;;;;;6187174;23;20371;-86
2023/01/01 08:54:52;;;;;;;1.40;1.20;;;21.20;56.00;;;;;;6188016;23;20379;-87
2023/01/01 08:57:31;;;;;;;1.80;1.50;;;21.20;56.00;;;;;;6187596;23;20362;-86
2023/01/01 09:00:08;;;;;;;1.53;1.43;;;21.20;56.10;;;;;;6187900;23;20406;-87
2023/01/01 09:02:40;;;;;;;1.83;1.37;;;21.20;56.00;;;;;;6187976;23;20406;-86
2023/01/01 09:05:14;;;;;;;1.70;1.10;;;21.20;56.00;;;;;;6186606;23;20391;-86
2023/01/01 09:07:45;;;;;;;1.50;1.40;;;21.20;56.00;;;;;;6212387;23;20359;-86
2023/01/01 09:10:19;;;;;;;1.53;1.27;;;21.20;56.00;;;;;;6186326;23;20386;-86
2023/01/01 09:12:51;;;;;;;2.13;1.63;;;21.20;56.00;;;;;;6187872;23;20374;-86
2023/01/01 09:15:46;;;;;;;1.30;1.20;;;21.20;56.60;;;;;;6164312;23;20375;-86
2023/01/01 09:21:45;;;;;;;1.40;1.30;;;21.20;56.00;;;;;;6123538;23;20444;-86
2023/01/01 09:24:27;;;;;;;1.70;1.50;;;21.20;56.00;;;;;;6098720;23;20366;-86
2023/01/01 09:30:43;;;;;;;1.40;1.20;;;21.20;56.00;;;;;;6123410;23;20333;-86
2023/01/01 09:33:15;;;;;;;2.33;1.70;;;21.20;56.00;;;;;;6099063;23;20380;-86
2023/01/01 09:38:47;;;;;;;1.87;1.40;;;21.20;56.00;;;;;;6120347;23;20386;-85
2023/01/01 09:42:15;;;;;;;;;;;;;;;;;;;;;
2023/01/01 09:44:56;;;;;;;1.60;1.20;;;21.20;56.00;;;;;;6065728;23;20343;-84
2023/01/01 09:47:45;;;;;;;2.00;1.30;;;21.20;56.00;;;;;;6041350;23;20386;-85
2023/01/01 09:50:39;;;;;;;1.97;1.33;;;21.20;56.10;;;;;;6094278;23;20422;-85
2023/01/01 09:53:46;;;;;;;1.30;1.10;;;21.20;56.10;;;;;;6070064;23;20381;-86
2023/01/01 09:59:49;;;;;;;1.37;1.20;;;21.20;56.10;;;;;;5980597;24;20452;-86
2023/01/01 10:02:34;;;;;;;2.13;1.60;;;21.20;56.10;;;;;;5981003;24;20414;-86
2023/01/01 10:05:39;;;;;;;1.73;1.23;;;21.20;56.10;;;;;;5978471;24;20365;-86
2023/01/01 10:08:48;;;;;;;;;;;;;;;;;;;;;
2023/01/01 10:11:50;;;;;;;1.30;1.20;;;21.20;56.20;;;;;;5980632;24;20374;-86
2023/01/01 10:18:32;;;;;;;;;;;;;;;;;;;;;
2023/01/01 10:21:36;;;;;;;;;;;;;;;;;;;;;
2023/01/01 10:24:35;;;;;;;2.20;1.33;;;21.20;56.10;;;;;;5982394;24;20394;-86
2023/01/01 10:27:13;;;;;;;1.17;1.03;;;21.20;56.20;;;;;;5970363;24;20389;-86
2023/01/01 10:43:31;;;;;;;1.67;1.57;;;21.20;56.20;;;;;;6010332;24;20418;-86
2023/01/01 10:46:06;;;;;;;1.37;1.00;;;21.20;56.20;;;;;;6007254;24;20358;-86
2023/01/01 10:49:03;;;;;;;1.50;1.33;;;21.20;56.10;;;;;;6009928;24;20375;-86
2023/01/01 10:51:42;;;;;;;1.50;1.30;;;21.20;56.10;;;;;;6010110;24;20362;-86
2023/01/01 10:54:43;;;;;;;1.00;0.90;;;21.30;56.20;;;;;;6038418;23;20365;-86
2023/01/01 10:57:53;;;;;;;2.03;1.57;;;21.30;56.20;;;;;;6092710;23;20388;-86
2023/01/01 11:00:46;;;;;;;1.40;1.17;;;21.30;56.20;;;;;;6035222;23;20368;-86
2023/01/01 11:04:07;;;;;;;1.40;1.00;;;21.30;56.10;;;;;;6037302;23;20376;-86
2023/01/01 11:19:38;;;;;;;1.30;1.10;;;21.30;56.20;;;;;;6095508;23;20413;-85
2023/01/01 11:22:52;;;;;;;1.40;1.10;;;21.20;56.10;;;;;;6089569;23;20415;-85
2023/01/01 11:25:57;;;;;;;1.43;1.23;;;21.30;56.20;;;;;;6094192;23;20355;-85
2023/01/01 11:29:21;;;;;;;1.23;1.13;;;21.30;56.20;;;;;;6092617;23;20742;-85
2023/01/01 11:34:46;;;;;;;1.53;1.37;;;21.20;56.20;;;;;;6095051;23;20387;-86
2023/01/01 11:37:28;;;;;;;1.53;1.30;;;21.30;56.20;;;;;;6127916;23;20389;-86
2023/01/01 11:44:00;;;;;;;1.73;1.50;;;21.30;56.20;;;;;;6094797;23;20404;-86
2023/01/01 11:46:54;;;;;;;1.63;1.40;;;21.20;56.10;;;;;;6071272;23;20378;-86
2023/01/01 11:49:36;;;;;;;1.83;1.43;;;21.30;56.20;;;;;;6070875;23;20435;-86
2023/01/01 11:59:16;;;;;;;1.47;1.37;;;21.30;56.20;;;;;;6009607;24;20353;-86
2023/01/01 12:08:59;;;;;;;1.63;1.40;;;21.30;56.20;;;;;;6009939;24;20410;-86
2023/01/01 12:15:08;;;;;;;;;;;;;;;;;;;;;
2023/01/01 12:18:16;;;;;;;2.20;1.27;;;21.30;56.30;;;;;;5952233;24;20390;-86
2023/01/01 12:24:40;;;;;;;1.37;1.10;;;21.30;56.20;;;;;;6009219;24;20396;-85
2023/01/01 12:27:34;;;;;;;;;;;;;;;;;;;;;
2023/01/01 12:30:40;;;;;;;2.13;1.50;;;21.30;56.20;;;;;;5870895;24;20366;-85
2023/01/01 12:33:54;;;;;;;1.20;1.10;;;21.30;56.20;;;;;;5871936;24;20373;-85
2023/01/01 12:36:55;;;;;;;1.30;1.10;;;21.30;56.20;;;;;;5849643;24;20409;-86
2023/01/01 12:40:11;;;;;;;1.10;1.00;;;21.30;56.20;;;;;;5835389;24;20370;-85
2023/01/01 12:43:08;;;;;;;1.53;1.30;;;21.30;56.20;;;;;;5849386;24;20425;-86
2023/01/01 12:46:17;;;;;;;1.23;1.10;;;21.30;56.30;;;;;;5849448;24;20382;-85
2023/01/01 12:49:03;;;;;;;1.30;1.10;;;21.30;56.30;;;;;;5871112;24;20393;-86
2023/01/01 12:52:21;;;;;;;;;;;;;;;;;;;;;
2023/01/01 12:55:52;;;;;;;;;;;;;;;;;;;;;
2023/01/01 12:58:54;;;;;;;1.33;1.20;;;21.30;56.30;;;;;;5980816;24;20436;-85
2023/01/01 13:02:02;;;;;;;1.10;1.00;;;21.30;56.30;;;;;;5957654;24;20428;-86
2023/01/01 13:04:55;;;;;;;1.77;1.20;;;21.30;56.30;;;;;;5919177;24;20440;-86
2023/01/01 13:08:06;;;;;;;;;;;;;;;;;;;;;
2023/01/01 13:11:01;;;;;;;1.47;1.30;;;21.30;56.30;;;;;;5924834;24;20383;-85
2023/01/01 13:14:01;;;;;;;1.40;1.00;;;21.30;56.30;;;;;;5924100;24;20478;-84
2023/01/01 13:17:01;;;;;;;1.73;1.40;;;21.30;56.30;;;;;;5924301;24;20375;-83
2023/01/01 13:19:54;;;;;;;2.43;1.60;;;21.30;56.30;;;;;;5926100;24;20380;-83
2023/01/01 13:25:35;;;;;;;;;;;;;;;;;;;;;
2023/01/01 13:28:23;;;;;;;;;;;;;;;;;;;;;
2023/01/01 13:31:28;;;;;;;1.20;1.10;;;21.30;56.20;;;;;;5935475;24;20383;-84
2023/01/01 13:34:51;;;;;;;;;;;;;;;;;;;;;
2023/01/01 13:44:41;;;;;;;1.20;1.10;;;21.30;56.20;;;;;;5956049;24;20415;-84
2023/01/01 13:47:49;;;;;;;;;;;;;;;;;;;;;
2023/01/01 14:01:20;;;;;;;2.30;1.10;;;21.30;56.30;;;;;;5949318;24;20361;-84
2023/01/01 14:04:37;;;;;;;1.20;0.93;;;21.30;56.30;;;;;;6010530;24;20388;-84
2023/01/01 14:08:03;;;;;;;1.23;0.90;;;21.30;56.30;;;;;;5985713;24;20376;-84
2023/01/01 14:14:23;;;;;;;1.13;0.93;;;21.30;56.30;;;;;;5846883;24;20358;-85
2023/01/01 14:17:06;;;;;;;1.10;1.00;;;21.30;56.30;;;;;;5862953;24;20380;-84
2023/01/01 14:30:29;;;;;;;;;;;;;;;;;;;;;
2023/01/01 14:33:40;;;;;;;1.33;1.20;;;21.30;56.40;;;;;;5842895;24;20387;-85
2023/01/01 14:40:19;;;;;;;1.63;1.30;;;21.30;56.40;;;;;;5900308;24;20392;-84
2023/01/01 14:43:45;;;;;;;1.23;1.13;;;21.30;56.40;;;;;;5899796;24;20529;-84
2023/01/01 14:46:35;;;;;;;;;;;;;;;;;;;;;
2023/01/01 14:49:32;;;;;;;2.00;1.70;;;21.30;56.40;;;;;;5853439;24;20370;-84
2023/01/01 14:52:24;;;;;;;1.07;0.97;;;21.30;57.00;;;;;;6078478;23;20378;-84
2023/01/01 15:09:04;;;;;;;;;;;;;;;;;;;;;
2023/01/01 15:14:51;;;;;;;1.40;1.20;;;21.30;56.90;;;;;;5927246;24;20364;-84
2023/01/01 15:17:49;;;;;;;1.80;1.47;;;21.30;56.40;;;;;;5924400;24;20376;-84
2023/01/01 15:21:04;;;;;;;;;;;;;;;;;;;;;
2023/01/01 15:27:26;;;;;;;;;;;;;;;;;;;;;
2023/01/01 15:30:13;;;;;;;;;;;;;;;;;;;;;
2023/01/01 15:33:21;;;;;;;1.57;1.20;;;21.30;56.40;;;;;;5919119;24;20367;-84
2023/01/01 15:39:21;;;;;;;1.20;0.97;;;21.30;56.40;;;;;;5948777;24;20404;-83
2023/01/01 15:41:53;;;;;;;1.30;1.10;;;21.30;56.40;;;;;;5931192;24;20452;-84
2023/01/01 15:45:11;;;;;;;1.20;1.07;;;21.30;56.40;;;;;;5977419;23;20388;-84
2023/01/01 15:51:54;;;;;;;1.20;1.07;;;21.30;56.30;;;;;;6038702;23;20405;-84
2023/01/01 16:01:39;;;;;;;;;;;;;;;;;;;;;
2023/01/01 16:04:58;;;;;;;;;;;;;;;;;;;;;
2023/01/01 16:07:59;;;;;;;1.50;1.10;;;21.30;56.40;;;;;;5845654;24;20363;-84
2023/01/01 16:10:44;;;;;;;1.20;1.10;;;21.30;56.40;;;;;;5846021;24;20723;-84
2023/01/01 16:19:43;;;;;;;1.20;1.10;;;21.30;56.40;;;;;;5819250;24;20379;-84
2023/01/01 16:22:20;;;;;;;1.20;1.00;;;21.30;56.40;;;;;;5817487;24;20433;-84
2023/01/01 16:24:58;;;;;;;1.87;1.40;;;21.30;56.40;;;;;;5797192;24;20393;-84
2023/01/01 16:27:34;;;;;;;0.97;0.80;;;21.30;56.40;;;;;;5817747;24;20413;-84
2023/01/01 16:40:13;;;;;;;;;;;;;;;;;;;;;
2023/01/01 16:42:53;;;;;;;1.30;1.20;;;21.30;56.30;;;;;;6094909;23;20788;-83
2023/01/01 16:45:54;;;;;;;1.20;0.90;;;21.20;56.20;;;;;;6069320;23;20386;-83
2023/01/01 16:48:35;;;;;;;1.77;1.33;;;21.30;56.30;;;;;;6093935;23;20446;-83
2023/01/01 16:51:28;;;;;;;;;;;;;;;;;;;;;
2023/01/01 16:53:59;;;;;;;1.40;1.10;;;21.30;56.30;;;;;;6153391;23;20372;-84
2023/01/01 16:56:49;;;;;;;1.10;1.00;;;21.30;56.30;;;;;;6164078;23;20372;-84
2023/01/01 16:59:23;;;;;;;1.83;1.30;;;21.30;56.30;;;;;;6164453;23;20391;-83
2023/01/01 17:01:58;;;;;;;1.30;1.10;;;21.30;56.20;;;;;;6189784;23;20438;-84
2023/01/01 17:04:51;;;;;;;1.30;1.00;;;21.30;56.20;;;;;;6210551;23;20359;-84
2023/01/01 17:07:18;;;;;;;1.27;1.13;;;21.30;56.20;;;;;;6183118;23;20367;-83
2023/01/01 17:10:00;;;;;;;1.57;1.27;;;21.30;56.20;;;;;;6186934;23;20371;-83
2023/01/01 17:13:00;;;;;;;;;;;;;;;;;;;;;
2023/01/01 17:16:30;;;;;;;1.30;1.17;;;21.30;56.20;;;;;;6044674;23;20400;-83
2023/01/01 17:19:14;;;;;;;1.90;1.50;;;21.30;56.20;;;;;;6040935;23;20382;-83
2023/01/01 17:21:48;;;;;;;1.50;1.10;;;21.30;56.20;;;;;;6065754;23;20464;-83
2023/01/01 17:25:00;;;;;;;1.57;1.10;;;21.30;56.20;;;;;;6065914;23;20434;-84
2023/01/01 17:27:35;;;;;;;1.20;0.97;;;21.30;56.20;;;;;;5954277;24;20404;-84
2023/01/01 17:32:58;;;;;;;1.50;1.20;;;21.40;56.80;;;;;;5955680;24;20381;-84
2023/01/01 17:35:28;;;;;;;1.27;1.17;;;21.30;56.20;;;;;;5909742;24;20370;-83
2023/01/01 17:37:55;;;;;;;1.23;1.13;;;21.30;56.20;;;;;;5955595;24;20372;-83
2023/01/01 17:40:31;;;;;;;1.63;1.27;;;21.30;56.20;;;;;;5955032;24;20442;-83
2023/01/01 17:42:58;;;;;;;1.20;1.10;;;21.40;56.20;;;;;;5906528;24;20431;-84
2023/01/01 17:45:30;;;;;;;1.40;1.07;;;21.40;56.20;;;;;;5947269;23;20377;-84
2023/01/01 17:48:06;;;;;;;2.10;1.53;;;21.40;56.20;;;;;;6011036;24;20361;-84
2023/01/01 17:50:45;;;;;;;1.40;1.20;;;21.40;56.20;;;;;;6030894;23;20364;-84
2023/01/01 17:53:16;;;;;;;1.83;1.10;;;21.40;56.20;;;;;;6039213;23;20400;-83
2023/01/01 18:02:36;;;;;;;1.37;1.03;;;21.30;56.10;;;;;;5983504;23;20493;-84
2023/01/01 18:09:31;;;;;;;;;;;;;;;;;;;;;
2023/01/01 18:12:26;;;;;;;1.40;1.00;;;21.30;56.20;;;;;;6066317;23;20379;-83
2023/01/01 18:18:59;;;;;;;;;;;;;;;;;;;;;
2023/01/01 18:29:07;;;;;;;;;;;;;;;;;;;;;
2023/01/01 18:39:23;;;;;;;1.50;1.20;;;21.30;56.30;;;;;;5981986;23;20353;-83
2023/01/01 18:43:16;;;;;;;;;;;;;;;;;;;;;
2023/01/01 18:46:21;;;;;;;;;;;;;;;;;;;;;
2023/01/01 18:49:06;;;;;;;1.37;1.27;;;21.30;56.30;;;;;;5793806;24;20385;-84
2023/01/01 18:52:46;;;;;;;1.33;1.23;;;21.30;56.30;;;;;;5792908;24;20385;-84
2023/01/01 18:55:43;;;;;;;1.27;0.93;;;21.30;56.30;;;;;;5766894;25;20411;-83
2023/01/01 18:58:54;;;;;;;;;;;;;;;;;;;;;
2023/01/01 19:01:49;;;;;;;2.10;1.43;;;21.30;56.30;;;;;;5742809;25;20394;-84
2023/01/01 19:11:23;;;;;;;1.30;1.20;;;21.40;56.30;;;;;;5741041;25;20385;-84
2023/01/01 19:14:47;;;;;;;1.10;1.00;;;21.30;56.20;;;;;;5694056;25;20387;-84
2023/01/01 19:17:44;;;;;;;1.40;1.07;;;21.40;56.30;;;;;;5751712;24;20366;-83